Time;durP1;ratioP1;P1;durP2;ratioP2;P2;SDS_P1;SDS_P2;PMS_P1;PMS_P2;Temp;Humidity;BMP_temperature;BMP_pressure;BME280_temperature;BME280_humidity;BME280_pressure;Samples;Min_cycle;Max_cycle;Signal;HPM_P1;HPM_P2
2021/08/27 00:01:36;;;;;;;;;;;;;;;18.44;49.34;100252.94;5118143;28;786;-45
2021/08/27 00:04:02;;;;;;;;;;;;;;;18.95;52.70;100248.53;5117440;28;1909;-44
2021/08/27 00:06:27;;;;;;;;;;;;;;;19.10;55.81;100245.50;5118434;28;826;-44
2021/08/27 00:08:52;;;;;;;;;;;;;;;19.37;57.67;100243.91;5117686;28;1039;-43
2021/08/27 00:11:18;;;;;;;;;;;;;;;19.60;58.88;100232.97;5117209;28;965;-45
2021/08/27 00:13:43;;;;;;;;;;;;;;;19.75;59.78;100229.06;5117620;28;791;-44
2021/08/27 00:16:09;;;;;;;;;;;;;;;19.88;60.56;100225.53;5117565;28;786;-45
2021/08/27 00:18:34;;;;;;;;;;;;;;;19.89;61.33;100226.34;5117451;28;766;-55
2021/08/27 00:21:00;;;;;;;;;;;;;;;20.04;61.58;100226.00;5117852;28;767;-47
2021/08/27 00:23:25;;;;;;;;;;;;;;;20.21;61.73;100238.31;5099047;28;1993;-46
2021/08/27 00:25:51;;;;;;;;;;;;;;;20.34;61.89;100238.28;5116904;28;728;-45
2021/08/27 00:28:16;;;;;;;;;;;;;;;20.44;61.75;100242.75;5117456;28;1017;-47
2021/08/27 00:30:42;;;;;;;;;;;;;;;20.28;61.44;100241.47;5117349;28;862;-45
2021/08/27 00:33:07;;;;;;;;;;;;;;;20.08;58.92;100243.56;5117612;28;858;-44
2021/08/27 00:35:32;;;;;;;;;;;;;;;19.66;56.16;100249.09;5117294;28;819;-44
2021/08/27 00:37:58;;;;;;;;;;;;;;;19.30;53.18;100249.00;5116942;28;855;-45
2021/08/27 00:40:23;;;;;;;;;;;;;;;18.86;51.35;100247.53;5117020;28;855;-45
2021/08/27 00:42:49;;;;;;;;;;;;;;;18.59;49.27;100244.44;5117048;28;1018;-45
2021/08/27 00:45:14;;;;;;;;;;;;;;;18.39;48.45;100248.28;5116970;28;1906;-44
2021/08/27 00:47:40;;;;;;;;;;;;;;;18.73;51.10;100254.66;5117057;28;771;-44
2021/08/27 00:50:05;;;;;;;;;;;;;;;19.04;54.52;100246.72;5117004;28;1660;-44
2021/08/27 00:52:31;;;;;;;;;;;;;;;19.22;57.21;100233.16;5116889;28;747;-46
2021/08/27 00:54:57;;;;;;;;;;;;;;;19.55;58.00;100238.59;5116730;28;803;-44
2021/08/27 00:57:23;;;;;;;;;;;;;;;19.66;59.36;100242.78;5116613;28;1145;-45
2021/08/27 00:59:48;;;;;;;;;;;;;;;19.79;60.22;100250.25;5117270;28;810;-44
2021/08/27 01:02:14;;;;;;;;;;;;;;;19.83;61.04;100261.50;5117046;28;749;-45
2021/08/27 01:04:40;;;;;;;;;;;;;;;19.98;61.41;100254.84;5115788;28;1910;-46
2021/08/27 01:07:09;;;;;;;;;;;;;;;20.02;61.98;100246.75;5098577;28;1103;-45
2021/08/27 01:09:44;;;;;;;;;;;;;;;20.26;61.64;100241.78;5117197;28;819;-46
2021/08/27 01:12:09;;;;;;;;;;;;;;;20.45;61.57;100244.34;5116452;28;1028;-44
2021/08/27 01:14:36;;;;;;;;;;;;;;;20.52;61.44;100228.19;5116904;28;806;-45
2021/08/27 01:17:02;;;;;;;;;;;;;;;20.43;60.66;100224.53;5098157;28;839;-45
2021/08/27 01:19:46;;;;;;;;;;;;;;;19.86;58.33;100224.19;5116615;28;759;-47
2021/08/27 01:22:11;;;;;;;;;;;;;;;19.43;54.55;100223.38;5117081;28;814;-45
2021/08/27 01:24:37;;;;;;;;;;;;;;;18.98;52.10;100228.63;5116511;28;1968;-45
2021/08/27 01:27:03;;;;;;;;;;;;;;;18.68;49.87;100224.44;5097481;28;1022;-45
2021/08/27 01:29:31;;;;;;;;;;;;;;;18.34;49.04;100228.28;5097613;28;883;-45
2021/08/27 01:31:58;;;;;;;;;;;;;;;18.53;49.79;100231.03;5116275;28;700;-45
2021/08/27 01:34:24;;;;;;;;;;;;;;;19.05;53.03;100234.56;5098577;28;811;-45
2021/08/27 01:36:50;;;;;;;;;;;;;;;19.34;55.72;100236.25;5097688;28;934;-45
2021/08/27 01:39:16;;;;;;;;;;;;;;;19.45;57.90;100234.09;5098308;28;795;-45
2021/08/27 01:41:41;;;;;;;;;;;;;;;19.61;59.18;100231.84;5097707;28;1026;-46
2021/08/27 01:44:07;;;;;;;;;;;;;;;19.79;59.97;100228.16;5098191;28;1911;-45
2021/08/27 01:46:33;;;;;;;;;;;;;;;20.05;60.21;100216.59;5116100;28;831;-45
2021/08/27 01:48:58;;;;;;;;;;;;;;;19.95;61.27;100211.28;5116301;28;1617;-45
2021/08/27 01:51:24;;;;;;;;;;;;;;;20.25;61.08;100217.25;5116571;28;811;-45
2021/08/27 01:53:49;;;;;;;;;;;;;;;20.30;61.32;100217.09;5097939;28;853;-44
2021/08/27 01:56:15;;;;;;;;;;;;;;;20.42;61.73;100222.09;5097399;28;1041;-44
2021/08/27 01:58:40;;;;;;;;;;;;;;;20.55;61.52;100218.44;5098484;28;838;-44
2021/08/27 02:01:05;;;;;;;;;;;;;;;20.43;60.80;100219.00;5097876;28;810;-44
2021/08/27 02:03:31;;;;;;;;;;;;;;;20.26;57.80;100213.34;5097847;28;1905;-44
2021/08/27 02:05:56;;;;;;;;;;;;;;;19.77;55.87;100208.34;5097672;28;852;-44
2021/08/27 02:08:22;;;;;;;;;;;;;;;19.22;54.25;100208.34;5096681;28;1158;-44
2021/08/27 02:10:47;;;;;;;;;;;;;;;19.01;52.30;100217.00;5098214;28;743;-44
2021/08/27 02:13:13;;;;;;;;;;;;;;;18.76;50.95;100224.59;5097754;28;958;-44
2021/08/27 02:15:38;;;;;;;;;;;;;;;18.71;49.80;100221.91;5098370;28;732;-42
2021/08/27 02:18:04;;;;;;;;;;;;;;;18.53;49.86;100215.31;5120068;28;751;-44
2021/08/27 02:20:29;;;;;;;;;;;;;;;18.49;51.88;100218.97;5119687;28;846;-45
2021/08/27 02:22:55;;;;;;;;;;;;;;;18.84;54.29;100209.28;5120334;28;760;-44
2021/08/27 02:25:21;;;;;;;;;;;;;;;19.31;56.28;100209.28;5120105;28;514;-43
2021/08/27 02:27:46;;;;;;;;;;;;;;;19.56;58.01;100212.63;5101177;28;1013;-43
2021/08/27 02:30:12;;;;;;;;;;;;;;;19.66;59.52;100221.53;5119725;28;859;-43
2021/08/27 02:32:37;;;;;;;;;;;;;;;19.83;60.10;100215.41;5119989;28;751;-44
2021/08/27 02:35:03;;;;;;;;;;;;;;;19.91;60.81;100219.38;5101052;28;931;-45
2021/08/27 02:37:30;;;;;;;;;;;;;;;20.10;61.14;100215.66;5101308;28;783;-43
2021/08/27 02:39:57;;;;;;;;;;;;;;;20.27;61.40;100221.34;5100775;28;824;-44
2021/08/27 02:42:22;;;;;;;;;;;;;;;20.28;61.91;100211.09;5118974;28;922;-44
2021/08/27 02:44:48;;;;;;;;;;;;;;;20.38;62.01;100210.03;5119422;28;1910;-43
2021/08/27 02:47:14;;;;;;;;;;;;;;;20.55;61.13;100209.34;5119567;28;801;-44
2021/08/27 02:49:39;;;;;;;;;;;;;;;20.13;59.58;100210.34;5119307;28;1558;-43
2021/08/27 02:52:05;;;;;;;;;;;;;;;19.56;57.02;100218.16;5100726;28;987;-43
2021/08/27 02:54:31;;;;;;;;;;;;;;;19.29;53.65;100225.31;5119409;28;831;-43
2021/08/27 02:56:56;;;;;;;;;;;;;;;18.89;51.09;100223.00;5118814;28;1017;-43
2021/08/27 02:59:22;;;;;;;;;;;;;;;18.40;49.33;100224.34;5100274;28;927;-44
2021/08/27 03:01:52;;;;;;;;;;;;;;;18.17;49.68;100215.88;5100714;28;1168;-43
2021/08/27 03:04:36;;;;;;;;;;;;;;;18.67;52.76;100215.38;5119342;28;1984;-43
2021/08/27 03:07:07;;;;;;;;;;;;;;;19.08;56.03;100224.88;5118729;28;1275;-44
2021/08/27 03:09:50;;;;;;;;;;;;;;;19.33;58.08;100218.06;5101615;28;835;-43
2021/08/27 03:12:16;;;;;;;;;;;;;;;19.60;59.24;100219.19;5099483;28;1080;-43
2021/08/27 03:14:44;;;;;;;;;;;;;;;19.73;60.04;100221.13;5100719;28;874;-43
2021/08/27 03:17:15;;;;;;;;;;;;;;;19.86;60.89;100224.19;5100515;28;779;-43
2021/08/27 03:19:41;;;;;;;;;;;;;;;20.07;60.90;100217.09;5119280;28;787;-54
2021/08/27 03:22:08;;;;;;;;;;;;;;;20.24;61.26;100210.09;5118591;28;794;-45
2021/08/27 03:24:35;;;;;;;;;;;;;;;20.29;61.46;100213.53;5099588;28;1996;-46
2021/08/27 03:27:02;;;;;;;;;;;;;;;20.42;61.50;100216.56;5099861;28;974;-47
2021/08/27 03:29:29;;;;;;;;;;;;;;;20.59;61.37;100213.91;5117899;28;862;-45
2021/08/27 03:31:54;;;;;;;;;;;;;;;20.41;61.58;100212.16;5099702;28;832;-45
2021/08/27 03:34:20;;;;;;;;;;;;;;;20.10;59.98;100221.97;5099965;28;903;-47
2021/08/27 03:36:45;;;;;;;;;;;;;;;19.64;57.40;100225.72;5100058;28;752;-46
2021/08/27 03:39:11;;;;;;;;;;;;;;;19.38;53.95;100229.00;5099892;28;803;-45
2021/08/27 03:41:36;;;;;;;;;;;;;;;19.03;51.58;100223.03;5118151;28;962;-45
2021/08/27 03:44:02;;;;;;;;;;;;;;;18.67;49.63;100226.38;5099006;28;1980;-46
2021/08/27 03:46:27;;;;;;;;;;;;;;;18.34;48.76;100233.78;5099963;28;883;-45
2021/08/27 03:48:53;;;;;;;;;;;;;;;18.40;49.55;100230.66;5118134;28;1648;-53
2021/08/27 03:51:19;;;;;;;;;;;;;;;18.85;52.87;100216.44;5117726;28;814;-43
2021/08/27 03:53:46;;;;;;;;;;;;;;;19.10;55.78;100220.69;5100671;28;718;-46
2021/08/27 03:56:11;;;;;;;;;;;;;;;19.52;57.49;100222.66;5117653;28;911;-45
2021/08/27 03:58:37;;;;;;;;;;;;;;;19.60;59.02;100225.53;5099366;28;958;-47
2021/08/27 04:01:04;;;;;;;;;;;;;;;19.81;59.79;100225.94;5117254;28;1435;-55
2021/08/27 04:03:34;;;;;;;;;;;;;;;19.92;60.56;100229.31;5108596;28;1934;-55
2021/08/27 04:06:09;;;;;;;;;;;;;;;20.03;60.86;100237.34;5079719;28;752;-58
2021/08/27 04:08:38;;;;;;;;;;;;;;;20.27;61.63;100239.81;5097241;28;1042;-48
2021/08/27 04:11:03;;;;;;;;;;;;;;;20.36;61.95;100249.00;5097578;28;795;-44
2021/08/27 04:13:29;;;;;;;;;;;;;;;20.42;62.03;100255.22;5116319;28;947;-45
2021/08/27 04:15:55;;;;;;;;;;;;;;;20.48;61.62;100253.97;5117696;28;830;-45
2021/08/27 04:18:20;;;;;;;;;;;;;;;20.15;61.12;100254.19;5117499;28;787;-45
2021/08/27 04:20:46;;;;;;;;;;;;;;;19.83;58.01;100256.78;5117454;28;819;-47
2021/08/27 04:23:11;;;;;;;;;;;;;;;19.42;55.21;100257.59;5118089;28;1909;-45
2021/08/27 04:25:37;;;;;;;;;;;;;;;19.12;52.41;100268.06;5117610;28;818;-43
2021/08/27 04:28:02;;;;;;;;;;;;;;;19.08;49.59;100268.97;5116816;28;895;-43
2021/08/27 04:30:28;;;;;;;;;;;;;;;18.53;48.70;100264.88;5117218;28;727;-43
2021/08/27 04:32:54;;;;;;;;;;;;;;;18.53;48.85;100272.34;5117399;28;775;-44
2021/08/27 04:35:19;;;;;;;;;;;;;;;18.99;51.96;100266.09;5117649;28;790;-44
2021/08/27 04:37:44;;;;;;;;;;;;;;;19.29;54.74;100277.69;5117254;28;759;-44
2021/08/27 04:40:10;;;;;;;;;;;;;;;19.50;56.93;100275.34;5115967;28;736;-44
2021/08/27 04:42:36;;;;;;;;;;;;;;;19.64;58.55;100280.88;5116753;28;1013;-44
2021/08/27 04:45:01;;;;;;;;;;;;;;;19.76;59.47;100278.41;5116999;28;1984;-44
2021/08/27 04:47:27;;;;;;;;;;;;;;;20.03;59.77;100273.22;5117148;28;846;-46
2021/08/27 04:49:52;;;;;;;;;;;;;;;20.11;60.36;100273.28;5116975;28;1661;-45
2021/08/27 04:52:17;;;;;;;;;;;;;;;20.32;60.48;100268.13;5116903;28;735;-44
2021/08/27 04:54:43;;;;;;;;;;;;;;;20.37;60.85;100266.38;5116789;28;850;-43
2021/08/27 04:57:08;;;;;;;;;;;;;;;20.51;61.02;100258.88;5116676;28;1095;-43
2021/08/27 04:59:33;;;;;;;;;;;;;;;20.67;60.72;100259.31;5116733;28;771;-43
2021/08/27 05:01:59;;;;;;;;;;;;;;;20.35;60.26;100256.47;5117216;28;800;-45
2021/08/27 05:04:26;;;;;;;;;;;;;;;20.19;58.25;100260.72;5117038;28;1974;-50
2021/08/27 05:06:51;;;;;;;;;;;;;;;19.70;55.38;100262.28;5116398;28;1039;-44
2021/08/27 05:09:17;;;;;;;;;;;;;;;19.28;52.82;100265.03;5116776;28;723;-44
2021/08/27 05:11:43;;;;;;;;;;;;;;;18.86;50.76;100256.66;5116958;28;962;-45
2021/08/27 05:14:08;;;;;;;;;;;;;;;18.64;48.36;100260.84;5116651;28;739;-44
2021/08/27 05:16:33;;;;;;;;;;;;;;;18.34;48.20;100262.16;5116902;28;499;-44
2021/08/27 05:18:59;;;;;;;;;;;;;;;18.57;49.99;100262.34;5116618;28;811;-46
2021/08/27 05:21:24;;;;;;;;;;;;;;;18.93;53.61;100259.06;5116101;28;806;-44
2021/08/27 05:23:50;;;;;;;;;;;;;;;19.29;55.93;100263.91;5116706;28;1906;-44
2021/08/27 05:26:16;;;;;;;;;;;;;;;19.40;57.88;100253.50;5116646;28;974;-44
2021/08/27 05:28:41;;;;;;;;;;;;;;;19.60;59.08;100257.78;5116104;28;866;-45
2021/08/27 05:31:09;;;;;;;;;;;;;;;19.79;59.81;100260.44;5116592;28;831;-45
2021/08/27 05:33:35;;;;;;;;;;;;;;;19.87;60.57;100261.72;5116552;28;834;-46
2021/08/27 05:36:00;;;;;;;;;;;;;;;20.07;60.62;100252.97;5116161;28;754;-45
2021/08/27 05:38:26;;;;;;;;;;;;;;;20.10;61.22;100252.34;5116836;28;874;-45
2021/08/27 05:40:51;;;;;;;;;;;;;;;20.36;61.03;100265.56;5116795;28;782;-45
2021/08/27 05:43:16;;;;;;;;;;;;;;;20.40;61.20;100255.53;5115869;28;1905;-45
2021/08/27 05:45:42;;;;;;;;;;;;;;;20.23;59.96;100258.97;5116665;28;826;-45
2021/08/27 05:48:08;;;;;;;;;;;;;;;19.80;57.90;100251.88;5116137;28;818;-45
2021/08/27 05:50:34;;;;;;;;;;;;;;;19.44;55.71;100255.31;5115921;28;1676;-45
2021/08/27 05:53:01;;;;;;;;;;;;;;;19.11;53.94;100255.41;5121002;28;759;-45
2021/08/27 05:55:26;;;;;;;;;;;;;;;18.96;51.66;100253.75;5120560;28;887;-45
2021/08/27 05:57:52;;;;;;;;;;;;;;;18.73;50.59;100252.75;5119838;28;966;-44
2021/08/27 06:00:17;;;;;;;;;;;;;;;18.55;50.46;100256.31;5120156;28;825;-45
2021/08/27 06:02:43;;;;;;;;;;;;;;;18.69;50.67;100251.69;5120520;28;823;-56
2021/08/27 06:05:08;;;;;;;;;;;;;;;18.73;51.51;100255.50;5120012;28;2000;-45
2021/08/27 06:07:34;;;;;;;;;;;;;;;18.81;52.29;100253.97;5120490;28;987;-45
2021/08/27 06:09:59;;;;;;;;;;;;;;;18.93;52.37;100261.81;5119824;28;869;-45
2021/08/27 06:12:25;;;;;;;;;;;;;;;18.83;53.17;100259.19;5119673;28;1025;-45
2021/08/27 06:14:50;;;;;;;;;;;;;;;18.61;53.84;100263.41;5120385;28;835;-45
2021/08/27 06:17:15;;;;;;;;;;;;;;;18.77;53.87;100270.28;5120102;28;775;-46
2021/08/27 06:19:41;;;;;;;;;;;;;;;18.80;53.66;100269.69;5119892;28;818;-45
2021/08/27 06:22:06;;;;;;;;;;;;;;;18.81;54.80;100265.00;5119934;28;787;-45
2021/08/27 06:24:32;;;;;;;;;;;;;;;19.04;56.03;100260.50;5119580;28;1971;-46
2021/08/27 06:26:57;;;;;;;;;;;;;;;19.36;56.65;100264.31;5119620;28;966;-46
2021/08/27 06:29:22;;;;;;;;;;;;;;;19.40;57.65;100248.78;5120403;28;790;-57
2021/08/27 06:31:48;;;;;;;;;;;;;;;19.46;58.37;100255.84;5119749;28;799;-46
2021/08/27 06:34:14;;;;;;;;;;;;;;;19.44;59.19;100252.56;5119581;28;827;-59
2021/08/27 06:36:39;;;;;;;;;;;;;;;19.53;59.49;100255.47;5119707;28;846;-46
2021/08/27 06:39:04;;;;;;;;;;;;;;;19.82;59.09;100254.34;5119608;28;811;-58
2021/08/27 06:41:30;;;;;;;;;;;;;;;19.80;59.59;100262.13;5118924;28;1032;-54
2021/08/27 06:43:55;;;;;;;;;;;;;;;19.76;60.04;100261.06;5119519;28;1909;-46
2021/08/27 06:46:22;;;;;;;;;;;;;;;19.86;60.00;100260.88;5119811;28;836;-46
2021/08/27 06:48:47;;;;;;;;;;;;;;;19.93;60.10;100260.47;5119328;28;1601;-46
2021/08/27 06:51:13;;;;;;;;;;;;;;;19.98;60.23;100263.13;5118971;28;803;-55
2021/08/27 06:53:38;;;;;;;;;;;;;;;20.17;59.97;100261.03;5119476;28;862;-51
2021/08/27 06:56:03;;;;;;;;;;;;;;;20.12;60.13;100263.91;5119269;28;859;-46
2021/08/27 06:58:29;;;;;;;;;;;;;;;20.21;59.82;100274.22;5118601;28;966;-55
2021/08/27 07:00:55;;;;;;;;;;;;;;;20.18;59.65;100287.50;5119206;28;883;-56
2021/08/27 07:03:21;;;;;;;;;;;;;;;20.10;59.66;100290.97;5117895;28;1978;-46
2021/08/27 07:05:46;;;;;;;;;;;;;;;20.04;59.57;100283.94;5118867;28;755;-51
2021/08/27 07:08:11;;;;;;;;;;;;;;;20.17;59.15;100288.63;5118978;28;1047;-56
2021/08/27 07:10:37;;;;;;;;;;;;;;;20.09;59.10;100274.72;5119189;28;883;-56
2021/08/27 07:13:02;;;;;;;;;;;;;;;20.02;59.40;100275.19;5118344;28;981;-47
2021/08/27 07:15:28;;;;;;;;;;;;;;;20.09;59.23;100281.09;5083358;28;1217;-56
2021/08/27 07:17:53;;;;;;;;;;;;;;;20.03;59.23;100270.47;5118601;28;827;-53
2021/08/27 07:20:19;;;;;;;;;;;;;;;20.18;58.76;100268.16;5119099;28;786;-52
2021/08/27 07:22:44;;;;;;;;;;;;;;;20.04;58.20;100277.63;5118810;28;823;-50
2021/08/27 07:25:10;;;;;;;;;;;;;;;19.85;56.14;100266.69;5118730;28;1901;-51
2021/08/27 07:27:36;;;;;;;;;;;;;;;19.63;54.44;100269.03;5099750;28;1053;-45
2021/08/27 07:30:01;;;;;;;;;;;;;;;19.21;52.97;100270.09;5118437;28;830;-55
2021/08/27 07:32:26;;;;;;;;;;;;;;;18.87;51.71;100263.81;5118573;28;771;-53
2021/08/27 07:34:52;;;;;;;;;;;;;;;18.68;50.59;100272.09;5118384;28;826;-45
2021/08/27 07:37:17;;;;;;;;;;;;;;;18.39;50.03;100267.56;5118705;28;759;-45
2021/08/27 07:39:43;;;;;;;;;;;;;;;18.40;50.50;100263.72;5118249;28;759;-53
2021/08/27 07:42:08;;;;;;;;;;;;;;;18.60;52.32;100275.53;5117284;28;942;-54
2021/08/27 07:44:34;;;;;;;;;;;;;;;18.93;54.38;100278.34;5118295;28;2285;-54
2021/08/27 07:46:59;;;;;;;;;;;;;;;19.33;55.47;100281.47;5118066;28;870;-52
2021/08/27 07:49:25;;;;;;;;;;;;;;;19.59;56.48;100281.00;5117785;28;1546;-46
2021/08/27 07:51:51;;;;;;;;;;;;;;;19.59;57.85;100272.72;5118207;28;858;-45
2021/08/27 07:54:17;;;;;;;;;;;;;;;19.70;58.43;100279.66;5117859;28;815;-44
2021/08/27 07:56:42;;;;;;;;;;;;;;;19.71;59.25;100285.97;5117555;28;1001;-56
2021/08/27 07:59:08;;;;;;;;;;;;;;;19.79;59.52;100283.34;5118205;28;787;-54
2021/08/27 08:01:33;;;;;;;;;;;;;;;19.94;59.62;100295.22;5117890;28;819;-53
2021/08/27 08:04:01;;;;;;;;;;;;;;;19.98;59.95;100296.22;5118008;28;1978;-53
2021/08/27 08:06:26;;;;;;;;;;;;;;;20.13;59.63;100303.34;5118475;28;802;-51
2021/08/27 08:08:52;;;;;;;;;;;;;;;20.08;60.20;100304.28;5117357;28;1244;-54
2021/08/27 08:11:17;;;;;;;;;;;;;;;20.10;60.58;100301.22;5117361;28;1020;-45
2021/08/27 08:13:43;;;;;;;;;;;;;;;20.24;60.58;100307.53;5117393;28;839;-52
2021/08/27 08:16:08;;;;;;;;;;;;;;;20.27;59.98;100300.56;5099652;28;843;-55
2021/08/27 08:18:35;;;;;;;;;;;;;;;19.93;58.34;100297.13;5117465;28;930;-49
2021/08/27 08:21:01;;;;;;;;;;;;;;;19.54;55.60;100292.13;5117497;28;827;-45
2021/08/27 08:23:27;;;;;;;;;;;;;;;19.27;52.73;100297.28;5117445;28;1979;-46
2021/08/27 08:25:52;;;;;;;;;;;;;;;18.87;51.05;100291.34;5117545;28;947;-44
2021/08/27 08:28:18;;;;;;;;;;;;;;;18.64;49.18;100298.59;5117231;28;962;-43
2021/08/27 08:30:43;;;;;;;;;;;;;;;18.35;48.64;100296.00;5117903;28;763;-52
2021/08/27 08:33:09;;;;;;;;;;;;;;;18.45;51.76;100295.84;5116953;28;846;-48
2021/08/27 08:35:34;;;;;;;;;;;;;;;19.17;55.26;100294.72;5117289;28;835;-54
2021/08/27 08:38:00;;;;;;;;;;;;;;;19.56;57.96;100289.84;5117384;28;779;-51
2021/08/27 08:40:25;;;;;;;;;;;;;;;19.91;59.47;100287.53;5117235;28;834;-46
2021/08/27 08:42:51;;;;;;;;;;;;;;;19.99;60.92;100281.28;5116798;28;950;-43
2021/08/27 08:45:16;;;;;;;;;;;;;;;20.19;61.54;100271.75;5099265;28;1980;-49
2021/08/27 08:47:45;;;;;;;;;;;;;;;20.36;62.15;100273.88;5116789;28;839;-53
2021/08/27 08:50:11;;;;;;;;;;;;;;;20.61;62.18;100274.41;5117221;28;1652;-52
2021/08/27 08:52:36;;;;;;;;;;;;;;;20.61;61.82;100266.91;5098963;28;816;-45
2021/08/27 08:55:03;;;;;;;;;;;;;;;20.42;59.71;100269.84;5117027;28;870;-45
2021/08/27 08:57:28;;;;;;;;;;;;;;;19.96;57.55;100255.16;5116667;28;950;-51
2021/08/27 08:59:54;;;;;;;;;;;;;;;19.87;54.92;100254.22;5116883;28;751;-46
2021/08/27 09:02:21;;;;;;;;;;;;;;;19.42;53.95;100242.97;5116854;28;791;-45
2021/08/27 09:04:46;;;;;;;;;;;;;;;19.21;52.44;100237.03;5117189;28;1960;-44
2021/08/27 09:07:11;;;;;;;;;;;;;;;19.10;51.20;100241.94;5117082;28;1078;-43
2021/08/27 09:09:37;;;;;;;;;;;;;;;18.95;50.67;100243.03;5116655;28;826;-43
2021/08/27 09:12:15;;;;;;;;;;;;;;;18.78;50.55;100240.81;5116267;28;1021;-43
2021/08/27 09:14:41;;;;;;;;;;;;;;;18.86;52.48;100240.13;5116846;28;843;-50
2021/08/27 09:17:06;;;;;;;;;;;;;;;19.29;54.83;100228.06;5098421;28;739;-43
2021/08/27 09:19:50;;;;;;;;;;;;;;;19.48;57.04;100234.28;5116725;28;835;-48
2021/08/27 09:22:16;;;;;;;;;;;;;;;19.80;58.31;100229.00;5116779;28;889;-42
2021/08/27 09:24:41;;;;;;;;;;;;;;;19.89;59.67;100229.09;5115887;28;1909;-42
2021/08/27 09:27:07;;;;;;;;;;;;;;;20.02;60.38;100224.66;5113745;28;1038;-50
2021/08/27 09:29:38;;;;;;;;;;;;;;;20.22;60.58;100229.72;5115583;28;843;-56
2021/08/27 09:32:17;;;;;;;;;;;;;;;20.31;61.05;100222.34;5115833;28;1158;-54
2021/08/27 09:34:42;;;;;;;;;;;;;;;20.35;61.12;100214.22;5097746;28;827;-57
2021/08/27 09:37:08;;;;;;;;;;;;;;;20.20;58.93;100206.31;5095496;28;1277;-55
2021/08/27 09:39:33;;;;;;;;;;;;;;;19.88;56.36;100208.97;5077482;28;1277;-48
2021/08/27 09:41:59;;;;;;;;;;;;;;;19.45;54.42;100207.34;5102439;28;934;-48
2021/08/27 09:44:24;;;;;;;;;;;;;;;19.07;52.32;100201.19;5116076;28;1937;-56
2021/08/27 09:46:50;;;;;;;;;;;;;;;18.81;50.65;100201.63;5115945;28;815;-52
2021/08/27 09:49:24;;;;;;;;;;;;;;;18.62;49.12;100213.53;5116182;28;1648;-54
2021/08/27 09:51:50;;;;;;;;;;;;;;;18.53;50.03;100218.06;5114715;28;871;-51
2021/08/27 09:54:32;;;;;;;;;;;;;;;18.73;51.64;100225.19;5115409;28;824;-53
2021/08/27 09:56:58;;;;;;;;;;;;;;;18.93;54.49;100228.75;5115740;28;970;-51
2021/08/27 09:59:36;;;;;;;;;;;;;;;19.30;56.91;100222.25;5115929;28;747;-54
2021/08/27 10:02:02;;;;;;;;;;;;;;;19.74;58.92;100206.22;5116006;28;807;-54
2021/08/27 10:04:29;;;;;;;;;;;;;;;19.88;60.17;100197.09;5114868;28;1917;-54
2021/08/27 10:06:54;;;;;;;;;;;;;;;20.11;60.94;100192.44;5115893;28;975;-55
2021/08/27 10:09:19;;;;;;;;;;;;;;;20.26;61.44;100203.13;5097104;28;823;-53
2021/08/27 10:11:45;;;;;;;;;;;;;;;20.33;62.03;100192.47;5115965;28;982;-53
2021/08/27 10:14:10;;;;;;;;;;;;;;;20.38;61.93;100193.47;5115678;28;788;-53
2021/08/27 10:16:36;;;;;;;;;;;;;;;20.19;60.39;100186.19;5114749;28;836;-44
2021/08/27 10:19:01;;;;;;;;;;;;;;;19.87;57.51;100184.44;5115615;28;771;-51
2021/08/27 10:21:27;;;;;;;;;;;;;;;19.44;55.49;100171.81;5115981;28;739;-52
2021/08/27 10:23:53;;;;;;;;;;;;;;;19.39;52.77;100180.19;5115793;28;1973;-47
2021/08/27 10:26:19;;;;;;;;;;;;;;;18.94;51.05;100178.84;5115328;28;934;-48
2021/08/27 10:28:44;;;;;;;;;;;;;;;18.62;49.72;100183.25;5096386;28;829;-54
2021/08/27 10:31:10;;;;;;;;;;;;;;;18.51;48.98;100180.94;5097634;28;775;-52
2021/08/27 10:33:38;;;;;;;;;;;;;;;18.49;49.10;100180.44;5115910;28;772;-48
2021/08/27 10:36:04;;;;;;;;;;;;;;;18.86;52.40;100182.28;5116255;28;863;-55
2021/08/27 10:38:45;;;;;;;;;;;;;;;19.48;55.73;100194.88;5118414;28;747;-55
2021/08/27 10:41:14;;;;;;;;;;;;;;;19.78;58.90;100182.41;5116298;28;883;-43
2021/08/27 10:43:49;;;;;;;;;;;;;;;20.08;60.06;100196.66;5098930;28;1976;-53
2021/08/27 10:46:14;;;;;;;;;;;;;;;20.18;61.44;100190.06;5098744;28;824;-54
2021/08/27 10:48:53;;;;;;;;;;;;;;;20.45;61.69;100199.38;5098762;28;1636;-44
2021/08/27 10:51:31;;;;;;;;;;;;;;;20.50;61.36;100194.53;5119398;28;885;-45
2021/08/27 10:53:56;;;;;;;;;;;;;;;20.10;59.50;100188.84;5117710;28;880;-44
2021/08/27 10:56:42;;;;;;;;;;;;;;;19.82;56.39;100186.19;5118461;28;926;-44
2021/08/27 10:59:08;;;;;;;;;;;;;;;19.58;53.39;100199.38;5118881;28;1304;-51
2021/08/27 11:01:34;;;;;;;;;;;;;;;19.03;51.68;100192.72;5119005;28;878;-51
2021/08/27 11:04:09;;;;;;;;;;;;;;;19.02;49.81;100195.78;5118953;28;1976;-46
2021/08/27 11:06:52;;;;;;;;;;;;;;;18.35;48.83;100186.69;5118144;28;883;-53
2021/08/27 11:09:18;;;;;;;;;;;;;;;18.24;47.80;100183.31;5118343;28;798;-55
2021/08/27 11:11:44;;;;;;;;;;;;;;;18.67;50.55;100182.31;5118655;28;911;-43
2021/08/27 11:14:13;;;;;;;;;;;;;;;19.32;54.62;100178.66;5118856;28;803;-43
2021/08/27 11:16:38;;;;;;;;;;;;;;;19.74;57.16;100181.38;5118889;28;806;-44
2021/08/27 11:19:22;;;;;;;;;;;;;;;19.92;59.42;100171.34;5118562;28;858;-49
2021/08/27 11:21:49;;;;;;;;;;;;;;;19.93;61.38;100178.47;5098358;28;747;-49
2021/08/27 11:24:18;;;;;;;;;;;;;;;20.31;61.59;100177.34;5097821;28;1972;-48
2021/08/27 11:26:46;;;;;;;;;;;;;;;20.46;62.28;100185.25;5102546;28;930;-43
2021/08/27 11:29:28;;;;;;;;;;;;;;;20.57;62.81;100182.25;5118162;28;759;-47
2021/08/27 11:31:54;;;;;;;;;;;;;;;20.49;61.79;100184.59;5118297;28;790;-45
2021/08/27 11:34:23;;;;;;;;;;;;;;;20.07;59.20;100172.94;5117315;28;880;-45
2021/08/27 11:36:48;;;;;;;;;;;;;;;19.85;56.47;100172.91;5118291;28;755;-43
2021/08/27 11:39:14;;;;;;;;;;;;;;;19.63;54.55;100175.25;5118229;28;811;-43
2021/08/27 11:41:39;;;;;;;;;;;;;;;19.26;52.79;100160.56;5099336;28;835;-44
2021/08/27 11:44:06;;;;;;;;;;;;;;;19.28;51.77;100168.56;5118415;28;1976;-50
2021/08/27 11:46:32;;;;;;;;;;;;;;;18.82;50.94;100170.22;5116954;28;888;-45
2021/08/27 11:49:05;;;;;;;;;;;;;;;18.77;50.19;100162.03;5117264;28;1613;-43
2021/08/27 11:51:33;;;;;;;;;;;;;;;18.55;49.57;100168.22;5118191;28;791;-47
2021/08/27 11:54:00;;;;;;;;;;;;;;;18.37;49.17;100159.72;5117789;28;847;-43
2021/08/27 11:56:26;;;;;;;;;;;;;;;18.49;49.75;100158.41;5099182;28;1476;-44
2021/08/27 11:58:52;;;;;;;;;;;;;;;18.89;53.49;100156.09;5116816;28;852;-44
2021/08/27 12:01:27;;;;;;;;;;;;;;;19.44;56.65;100160.78;5117657;28;878;-43
2021/08/27 12:03:52;;;;;;;;;;;;;;;19.63;59.32;100157.91;5117665;28;1909;-44
2021/08/27 12:06:18;;;;;;;;;;;;;;;19.81;60.66;100165.25;5117739;28;739;-44
2021/08/27 12:08:45;;;;;;;;;;;;;;;20.04;61.46;100168.03;5117474;28;1097;-45
2021/08/27 12:11:10;;;;;;;;;;;;;;;20.23;62.05;100173.38;5115887;28;840;-44
2021/08/27 12:13:48;;;;;;;;;;;;;;;20.33;62.21;100181.41;5117492;28;989;-43
2021/08/27 12:16:13;;;;;;;;;;;;;;;20.44;62.31;100182.00;5117267;28;834;-43
2021/08/27 12:18:40;;;;;;;;;;;;;;;20.34;61.55;100174.78;5117381;28;763;-44
2021/08/27 12:21:06;;;;;;;;;;;;;;;20.12;58.60;100170.06;5117507;28;782;-43
2021/08/27 12:23:34;;;;;;;;;;;;;;;19.92;56.30;100167.75;5116181;28;2357;-47
2021/08/27 12:26:06;;;;;;;;;;;;;;;19.65;54.38;100177.72;5099370;28;732;-44
2021/08/27 12:28:32;;;;;;;;;;;;;;;19.23;52.88;100182.44;5116758;28;1009;-44
2021/08/27 12:30:58;;;;;;;;;;;;;;;19.02;51.80;100184.78;5116731;28;861;-42
2021/08/27 12:33:24;;;;;;;;;;;;;;;18.91;50.28;100182.19;5117159;28;846;-44
2021/08/27 12:35:49;;;;;;;;;;;;;;;18.65;50.14;100181.81;5098986;28;1481;-53
2021/08/27 12:38:15;;;;;;;;;;;;;;;18.69;50.65;100182.84;5115399;28;816;-44
2021/08/27 12:40:41;;;;;;;;;;;;;;;18.66;51.43;100180.69;5116889;28;823;-48
2021/08/27 12:43:10;;;;;;;;;;;;;;;18.88;52.14;100182.00;5116891;28;926;-44
2021/08/27 12:45:41;;;;;;;;;;;;;;;18.90;53.13;100182.50;5116582;28;1902;-44
2021/08/27 12:48:07;;;;;;;;;;;;;;;19.01;54.63;100175.66;5116768;28;898;-46
2021/08/27 12:50:42;;;;;;;;;;;;;;;19.28;55.89;100180.41;5115202;28;1625;-46
2021/08/27 12:53:07;;;;;;;;;;;;;;;19.61;56.70;100179.44;5116366;28;851;-52